createdAt,value
2022-09-09T00:01:43.002Z,7.33
2022-09-09T00:03:54.618Z,7.97
2022-09-09T00:06:12.277Z,7.43
2022-09-09T00:08:21.850Z,6.37
2022-09-09T00:10:40.530Z,6.40
2022-09-09T00:12:49.357Z,6.30
2022-09-09T00:15:01.244Z,5.80
2022-09-09T00:17:11.045Z,5.40
2022-09-09T00:19:54.616Z,4.53
2022-09-09T00:21:58.704Z,4.93
2022-09-09T00:24:02.043Z,5.57
2022-09-09T00:26:16.231Z,5.40
2022-09-09T00:28:21.065Z,4.80
2022-09-09T00:30:29.882Z,4.70
2022-09-09T00:32:36.676Z,3.80
2022-09-09T00:34:49.370Z,3.43
2022-09-09T00:36:53.661Z,4.60
2022-09-09T00:39:01.867Z,3.83
2022-09-09T00:41:18.367Z,4.27
2022-09-09T00:43:32.061Z,4.53
2022-09-09T00:45:46.885Z,4.10
2022-09-09T00:47:53.281Z,3.70
2022-09-09T00:50:30.736Z,4.90
2022-09-09T00:52:35.421Z,3.90
2022-09-09T00:55:00.446Z,3.73
2022-09-09T00:57:37.475Z,4.30
2022-09-09T01:00:05.925Z,3.93
2022-09-09T01:02:43.173Z,4.67
2022-09-09T01:04:45.806Z,3.80
2022-09-09T01:06:55.892Z,3.80
2022-09-09T01:09:19.491Z,3.80
2022-09-09T01:11:24.159Z,3.47
2022-09-09T01:13:36.006Z,3.60
2022-09-09T01:15:43.670Z,3.60
2022-09-09T01:18:04.988Z,4.23
2022-09-09T01:20:20.937Z,3.47
2022-09-09T01:23:14.722Z,3.47
2022-09-09T01:25:30.243Z,3.20
2022-09-09T01:27:49.419Z,3.53
2022-09-09T01:29:51.792Z,3.83
2022-09-09T01:32:24.614Z,3.60
2022-09-09T01:34:35.238Z,4.30
2022-09-09T01:36:45.368Z,3.30
2022-09-09T01:38:47.801Z,4.30
2022-09-09T01:40:53.139Z,3.70
2022-09-09T01:42:58.934Z,4.23
2022-09-09T01:45:00.920Z,3.90
2022-09-09T01:47:03.618Z,3.50
2022-09-09T01:49:08.187Z,3.50
2022-09-09T01:51:13.951Z,3.97
2022-09-09T01:53:18.570Z,4.00
2022-09-09T01:55:27.654Z,4.53
2022-09-09T01:57:34.771Z,3.40
2022-09-09T01:59:36.734Z,4.10
2022-09-09T02:01:53.623Z,4.00
2022-09-09T02:03:58.485Z,4.07
2022-09-09T02:06:27.893Z,4.37
2022-09-09T02:08:47.508Z,4.30
2022-09-09T02:11:14.427Z,4.40
2022-09-09T02:13:26.436Z,4.50
2022-09-09T02:15:35.639Z,4.50
2022-09-09T02:17:39.104Z,4.17
2022-09-09T02:19:49.991Z,3.70
2022-09-09T02:22:12.211Z,3.77
2022-09-09T02:24:15.672Z,4.30
2022-09-09T02:26:24.403Z,4.20
2022-09-09T02:28:33.992Z,4.30
2022-09-09T02:30:38.487Z,4.93
2022-09-09T02:32:41.550Z,3.67
2022-09-09T02:34:51.485Z,3.60
2022-09-09T02:36:54.993Z,3.83
2022-09-09T02:38:57.537Z,4.03
2022-09-09T02:41:03.361Z,4.63
2022-09-09T02:43:07.450Z,4.00
2022-09-09T02:45:13.478Z,3.87
2022-09-09T02:47:17.057Z,3.60
2022-09-09T02:49:29.100Z,3.53
2022-09-09T02:51:33.950Z,3.60
2022-09-09T02:53:46.191Z,3.43
2022-09-09T02:55:55.762Z,3.20
2022-09-09T02:57:59.761Z,3.50
2022-09-09T03:00:04.214Z,3.57
2022-09-09T03:02:08.575Z,3.90
2022-09-09T03:04:11.266Z,4.07
2022-09-09T03:06:15.415Z,3.80
2022-09-09T03:08:18.500Z,3.20
2022-09-09T03:10:21.041Z,3.30
2022-09-09T03:12:23.005Z,4.10
2022-09-09T03:14:28.052Z,3.50
2022-09-09T03:16:31.033Z,3.70
2022-09-09T03:18:33.417Z,3.63
2022-09-09T03:20:35.574Z,3.10
2022-09-09T03:22:37.568Z,3.90
2022-09-09T03:24:39.603Z,3.53
2022-09-09T03:26:42.543Z,4.23
2022-09-09T03:28:47.328Z,4.13
2022-09-09T03:30:53.038Z,3.40
2022-09-09T03:32:56.347Z,3.80
2022-09-09T03:35:01.835Z,3.20
2022-09-09T03:37:03.954Z,2.77
2022-09-09T03:39:05.994Z,4.00
2022-09-09T03:41:08.875Z,3.20
2022-09-09T03:43:11.354Z,3.73
2022-09-09T03:45:14.249Z,3.63
2022-09-09T03:47:19.339Z,3.73
2022-09-09T03:49:23.072Z,3.93
2022-09-09T03:51:25.530Z,3.40
2022-09-09T03:53:28.227Z,4.00
2022-09-09T03:55:30.194Z,3.30
2022-09-09T03:57:33.029Z,3.87
2022-09-09T03:59:36.050Z,3.50
2022-09-09T04:01:38.589Z,3.43
2022-09-09T04:03:41.003Z,3.07
2022-09-09T04:05:43.437Z,3.57
2022-09-09T04:07:46.406Z,3.10
2022-09-09T04:09:48.493Z,3.70
2022-09-09T04:11:50.830Z,3.80
2022-09-09T04:13:52.926Z,3.60
2022-09-09T04:15:56.823Z,3.77
2022-09-09T04:17:58.983Z,3.10
2022-09-09T04:20:02.291Z,3.40
2022-09-09T04:22:04.363Z,3.97
2022-09-09T04:24:08.985Z,3.47
2022-09-09T04:26:11.070Z,3.23
2022-09-09T04:28:15.255Z,3.63
2022-09-09T04:30:18.321Z,3.80
2022-09-09T04:32:20.402Z,3.40
2022-09-09T04:34:22.885Z,4.20
2022-09-09T04:36:24.969Z,4.03
2022-09-09T04:38:31.403Z,4.40
2022-09-09T04:40:34.180Z,4.00
2022-09-09T04:42:37.804Z,4.87
2022-09-09T04:44:40.392Z,4.77
2022-09-09T04:46:42.605Z,5.27
2022-09-09T04:48:46.390Z,4.30
2022-09-09T04:51:04.707Z,4.73
2022-09-09T04:53:08.605Z,4.63
2022-09-09T04:55:14.013Z,5.20
2022-09-09T04:57:19.503Z,4.70
2022-09-09T04:59:23.419Z,4.87
2022-09-09T05:01:29.519Z,4.70
2022-09-09T05:03:37.511Z,4.33
2022-09-09T05:05:41.541Z,4.77
2022-09-09T05:07:44.389Z,4.40
2022-09-09T05:09:47.951Z,4.10
2022-09-09T05:11:50.133Z,5.93
2022-09-09T05:14:13.218Z,4.70
2022-09-09T05:16:16.029Z,4.63
2022-09-09T05:18:18.272Z,4.40
2022-09-09T05:20:20.435Z,4.33
2022-09-09T05:22:24.119Z,4.53
2022-09-09T05:24:28.284Z,3.80
2022-09-09T05:26:33.495Z,5.10
2022-09-09T05:28:39.142Z,4.73
2022-09-09T05:30:41.968Z,5.17
2022-09-09T05:32:44.429Z,4.47
2022-09-09T05:34:48.085Z,4.60
2022-09-09T05:36:50.856Z,4.27
2022-09-09T05:38:54.870Z,4.00
2022-09-09T05:41:00.646Z,3.70
2022-09-09T05:43:03.016Z,3.47
2022-09-09T05:45:05.893Z,3.53
2022-09-09T05:47:09.126Z,3.33
2022-09-09T05:49:11.400Z,3.80
2022-09-09T05:51:18.352Z,3.43
2022-09-09T05:53:21.184Z,3.97
2022-09-09T05:55:23.973Z,3.40
2022-09-09T05:57:26.230Z,4.53
2022-09-09T05:59:28.906Z,3.67
2022-09-09T06:01:34.224Z,3.50
2022-09-09T06:03:39.771Z,3.67
2022-09-09T06:05:41.985Z,4.10
2022-09-09T06:07:45.758Z,3.30
2022-09-09T06:09:48.397Z,3.03
2022-09-09T06:11:50.551Z,3.20
2022-09-09T06:13:54.818Z,3.60
2022-09-09T06:15:57.855Z,3.50
2022-09-09T06:18:00.171Z,3.37
2022-09-09T06:20:03.424Z,2.83
2022-09-09T06:22:07.248Z,3.07
2022-09-09T06:24:14.812Z,3.50
2022-09-09T06:26:20.353Z,2.90
2022-09-09T06:28:26.106Z,2.63
2022-09-09T06:30:28.227Z,2.73
2022-09-09T06:32:30.375Z,2.57
2022-09-09T06:34:32.628Z,3.00
2022-09-09T06:36:38.097Z,2.70
2022-09-09T06:38:40.656Z,2.90
2022-09-09T06:40:44.096Z,2.93
2022-09-09T06:42:46.470Z,2.40
2022-09-09T06:45:08.955Z,2.63
2022-09-09T06:47:19.547Z,3.17
2022-09-09T06:49:22.849Z,2.63
2022-09-09T06:51:26.971Z,3.13
2022-09-09T06:53:30.851Z,2.77
2022-09-09T06:55:33.419Z,3.33
2022-09-09T06:57:37.873Z,2.93
2022-09-09T06:59:49.319Z,3.17
2022-09-09T07:01:55.781Z,2.60
2022-09-09T07:04:02.941Z,2.83
2022-09-09T07:06:08.469Z,3.00
2022-09-09T07:08:12.055Z,2.87
2022-09-09T07:10:14.568Z,3.50
2022-09-09T07:12:16.827Z,2.53
2022-09-09T07:14:26.324Z,2.87
2022-09-09T07:16:38.231Z,3.37
2022-09-09T07:18:41.111Z,2.70
2022-09-09T07:20:45.662Z,3.00
2022-09-09T07:22:47.947Z,3.13
2022-09-09T07:24:50.679Z,2.73
2022-09-09T07:26:53.218Z,2.90
2022-09-09T07:28:57.454Z,3.23
2022-09-09T07:31:03.373Z,2.90
2022-09-09T07:33:06.015Z,2.70
2022-09-09T07:35:08.966Z,2.50
2022-09-09T07:37:12.750Z,2.87
2022-09-09T07:39:18.545Z,2.50
2022-09-09T07:41:27.890Z,2.40
2022-09-09T07:43:30.006Z,2.07
2022-09-09T07:45:34.434Z,2.20
2022-09-09T07:47:36.845Z,1.77
2022-09-09T07:49:39.473Z,1.93
2022-09-09T07:51:46.420Z,2.10
2022-09-09T07:53:55.592Z,1.67
2022-09-09T07:56:04.639Z,1.90
2022-09-09T07:58:07.106Z,1.73
2022-09-09T08:00:11.391Z,1.60
2022-09-09T08:02:19.322Z,1.30
2022-09-09T08:04:23.062Z,1.27
2022-09-09T08:06:27.997Z,1.37
2022-09-09T08:11:15.866Z,1.30
2022-09-09T08:13:19.461Z,1.60
2022-09-09T08:15:23.326Z,1.60
2022-09-09T08:17:25.674Z,1.30
2022-09-09T08:19:30.589Z,1.33
2022-09-09T08:21:37.726Z,1.33
2022-09-09T08:23:42.857Z,1.53
2022-09-09T08:25:46.598Z,1.70
2022-09-09T08:27:49.334Z,1.50
2022-09-09T08:29:51.447Z,1.40
2022-09-09T08:31:55.985Z,1.53
2022-09-09T08:34:00.449Z,1.97
2022-09-09T08:36:03.768Z,1.60
2022-09-09T08:38:10.648Z,1.60
2022-09-09T08:40:21.279Z,1.40
2022-09-09T08:42:36.222Z,1.40
2022-09-09T08:44:38.305Z,1.40
2022-09-09T08:47:02.913Z,1.40
2022-09-09T08:49:20.542Z,1.40
2022-09-09T08:51:22.790Z,1.43
2022-09-09T08:53:31.491Z,1.57
2022-09-09T08:55:54.382Z,1.40
2022-09-09T08:58:10.109Z,1.50
2022-09-09T09:00:12.866Z,1.60
2022-09-09T09:02:19.813Z,1.37
2022-09-09T09:04:37.826Z,1.50
2022-09-09T09:07:05.887Z,1.60
2022-09-09T09:09:31.414Z,1.93
2022-09-09T09:11:39.339Z,1.73
2022-09-09T09:14:00.619Z,1.40
2022-09-09T09:16:19.116Z,2.03
2022-09-09T09:18:21.239Z,1.47
2022-09-09T09:20:36.878Z,2.17
2022-09-09T09:22:53.394Z,1.13
2022-09-09T09:25:18.997Z,1.53
2022-09-09T09:27:36.289Z,1.20
2022-09-09T09:30:10.091Z,1.60
2022-09-09T09:32:08.781Z,1.77
2022-09-09T09:34:13.080Z,1.47
2022-09-09T09:36:17.262Z,1.90
2022-09-09T09:40:58.927Z,2.47
2022-09-09T09:43:02.480Z,1.40
2022-09-09T09:45:15.979Z,1.70
2022-09-09T09:47:21.520Z,1.60
2022-09-09T09:50:03.523Z,1.60
2022-09-09T09:52:16.723Z,1.30
2022-09-09T09:54:26.162Z,1.57
2022-09-09T09:56:31.382Z,1.20
2022-09-09T09:58:47.228Z,1.30
2022-09-09T10:00:53.266Z,1.30
2022-09-09T10:02:58.332Z,1.40
2022-09-09T10:05:14.870Z,1.80
2022-09-09T10:07:22.202Z,6.10
2022-09-09T10:09:33.815Z,1.77
2022-09-09T10:11:46.660Z,1.80
2022-09-09T10:14:07.838Z,1.97
2022-09-09T10:16:39.465Z,1.20
2022-09-09T10:19:01.674Z,1.33
2022-09-09T10:21:25.183Z,1.73
2022-09-09T10:23:58.435Z,1.63
2022-09-09T10:26:20.747Z,1.30
2022-09-09T10:28:41.674Z,1.50
2022-09-09T10:31:06.030Z,1.20
2022-09-09T10:33:15.871Z,1.10
2022-09-09T10:35:40.346Z,1.97
2022-09-09T10:38:18.334Z,1.40
2022-09-09T10:40:34.037Z,1.20
2022-09-09T10:42:36.182Z,1.37
2022-09-09T10:44:49.658Z,1.70
2022-09-09T10:47:16.752Z,1.17
2022-09-09T10:49:34.203Z,1.30
2022-09-09T10:52:01.146Z,1.43
2022-09-09T10:54:12.214Z,1.53
2022-09-09T10:56:17.859Z,1.20
2022-09-09T10:58:32.198Z,1.30
2022-09-09T11:00:40.991Z,1.10
2022-09-09T11:02:43.374Z,1.63
2022-09-09T11:05:09.914Z,1.10
2022-09-09T11:07:14.855Z,1.30
2022-09-09T11:09:21.603Z,1.20
2022-09-09T11:11:31.025Z,1.70
2022-09-09T11:13:44.360Z,1.90
2022-09-09T11:15:52.385Z,1.13
2022-09-09T11:17:57.971Z,1.57
2022-09-09T11:20:00.062Z,1.90
2022-09-09T11:22:05.764Z,2.10
2022-09-09T11:24:14.481Z,1.80
2022-09-09T11:26:21.914Z,1.37
2022-09-09T11:28:27.154Z,1.40
2022-09-09T11:31:04.715Z,1.67
2022-09-09T11:33:43.606Z,1.80
2022-09-09T11:36:13.434Z,1.87
2022-09-09T11:38:43.314Z,1.83
2022-09-09T11:40:45.964Z,1.67
2022-09-09T11:42:50.858Z,1.47
2022-09-09T11:44:54.538Z,1.70
2022-09-09T11:46:56.540Z,1.90
2022-09-09T11:49:22.979Z,1.70
2022-09-09T11:51:24.919Z,1.50
2022-09-09T11:53:28.707Z,1.40
2022-09-09T11:55:34.460Z,1.40
2022-09-09T11:57:37.520Z,1.50
2022-09-09T11:59:39.494Z,1.40
2022-09-09T12:01:45.816Z,1.03
2022-09-09T12:03:53.908Z,1.50
2022-09-09T12:05:57.282Z,1.30
2022-09-09T12:07:59.795Z,1.37
2022-09-09T12:10:25.081Z,1.30
2022-09-09T12:12:41.555Z,1.50
2022-09-09T12:14:56.810Z,1.20
2022-09-09T12:17:29.101Z,1.17
2022-09-09T12:19:31.132Z,1.20
2022-09-09T12:21:40.030Z,1.27
2022-09-09T12:23:51.239Z,1.17
2022-09-09T12:26:30.499Z,1.43
2022-09-09T12:28:51.916Z,1.10
2022-09-09T12:30:59.557Z,1.10
2022-09-09T12:33:12.855Z,1.40
2022-09-09T12:35:22.543Z,1.30
2022-09-09T12:37:36.387Z,1.10
2022-09-09T12:39:43.588Z,1.50
2022-09-09T12:41:58.433Z,1.83
2022-09-09T12:44:29.171Z,1.27
2022-09-09T12:46:37.693Z,1.60
2022-09-09T12:48:45.505Z,1.23
2022-09-09T12:50:51.085Z,1.33
2022-09-09T12:52:56.029Z,1.40
2022-09-09T12:55:00.117Z,1.30
2022-09-09T12:57:02.092Z,1.13
2022-09-09T12:59:04.103Z,1.20
2022-09-09T13:01:07.074Z,1.40
2022-09-09T13:03:21.774Z,1.80
2022-09-09T13:05:29.024Z,1.30
2022-09-09T13:07:31.037Z,1.23
2022-09-09T13:09:33.250Z,1.40
2022-09-09T13:11:39.626Z,1.20
2022-09-09T13:13:43.065Z,1.17
2022-09-09T13:15:53.010Z,1.00
2022-09-09T13:18:01.691Z,1.57
2022-09-09T13:20:05.288Z,1.07
2022-09-09T13:22:15.496Z,1.40
2022-09-09T13:24:33.150Z,1.27
2022-09-09T13:26:36.080Z,1.43
2022-09-09T13:28:38.259Z,1.33
2022-09-09T13:30:42.103Z,1.20
2022-09-09T13:32:44.163Z,1.40
2022-09-09T13:34:57.321Z,1.53
2022-09-09T13:37:03.988Z,1.10
2022-09-09T13:39:06.021Z,1.10
2022-09-09T13:41:10.497Z,1.43
2022-09-09T13:43:22.028Z,1.43
2022-09-09T13:45:27.741Z,1.27
2022-09-09T13:47:36.095Z,1.60
2022-09-09T13:49:38.103Z,1.13
2022-09-09T13:51:43.447Z,1.60
2022-09-09T13:53:47.346Z,1.53
2022-09-09T13:55:53.192Z,1.37
2022-09-09T13:57:57.402Z,1.10
2022-09-09T14:00:06.940Z,1.60
2022-09-09T14:02:09.143Z,1.20
2022-09-09T14:04:11.738Z,1.20
2022-09-09T14:06:14.759Z,1.17
2022-09-09T14:08:23.131Z,1.33
2022-09-09T14:10:25.160Z,1.30
2022-09-09T14:12:27.308Z,1.20
2022-09-09T14:14:29.515Z,1.60
2022-09-09T14:16:31.692Z,1.53
2022-09-09T14:18:35.054Z,1.13
2022-09-09T14:20:37.452Z,1.40
2022-09-09T14:22:40.446Z,1.20
2022-09-09T14:24:42.423Z,1.10
2022-09-09T14:26:44.523Z,1.30
2022-09-09T14:28:55.608Z,1.10
2022-09-09T14:31:02.023Z,1.27
2022-09-09T14:33:04.631Z,1.20
2022-09-09T14:35:07.132Z,0.80
2022-09-09T14:37:09.184Z,1.00
2022-09-09T14:39:11.275Z,1.10
2022-09-09T14:41:18.060Z,1.37
2022-09-09T14:43:20.156Z,1.17
2022-09-09T14:45:23.080Z,1.40
2022-09-09T14:47:25.244Z,1.10
2022-09-09T14:49:27.264Z,1.27
2022-09-09T14:51:29.607Z,1.10
2022-09-09T14:53:31.673Z,1.30
2022-09-09T14:55:34.098Z,1.73
2022-09-09T14:57:37.008Z,1.00
2022-09-09T14:59:39.015Z,1.90
2022-09-09T15:01:41.345Z,1.33
2022-09-09T15:03:49.171Z,1.20
2022-09-09T15:05:52.629Z,1.20
2022-09-09T15:07:55.832Z,1.30
2022-09-09T15:09:57.820Z,1.17
2022-09-09T15:12:00.290Z,1.20
2022-09-09T15:14:02.303Z,1.30
2022-09-09T15:16:06.638Z,1.20
2022-09-09T15:18:08.709Z,1.27
2022-09-09T15:20:10.958Z,1.10
2022-09-09T15:22:13.221Z,1.00
2022-09-09T15:24:17.934Z,1.30
2022-09-09T15:26:21.632Z,1.00
2022-09-09T15:28:23.880Z,1.20
2022-09-09T15:30:25.986Z,1.07
2022-09-09T15:32:28.897Z,1.40
2022-09-09T15:34:30.972Z,0.90
2022-09-09T15:36:35.450Z,1.20
2022-09-09T15:38:37.584Z,1.27
2022-09-09T15:40:40.991Z,1.20
2022-09-09T15:42:43.839Z,1.30
2022-09-09T15:44:46.111Z,1.27
2022-09-09T15:46:52.406Z,1.30
2022-09-09T15:48:56.719Z,1.10
2022-09-09T15:51:24.695Z,1.10
2022-09-09T15:53:27.473Z,0.90
2022-09-09T15:55:29.838Z,1.00
2022-09-09T15:57:31.862Z,1.10
2022-09-09T15:59:35.086Z,1.10
2022-09-09T16:01:37.203Z,0.90
2022-09-09T16:03:47.084Z,1.00
2022-09-09T16:05:52.578Z,1.00
2022-09-09T16:07:55.259Z,1.00
2022-09-09T16:09:57.222Z,1.10
2022-09-09T16:12:03.607Z,0.90
2022-09-09T16:14:07.555Z,0.90
2022-09-09T16:16:14.554Z,0.90
2022-09-09T16:18:17.156Z,1.10
2022-09-09T16:20:19.927Z,1.13
2022-09-09T16:22:22.851Z,1.47
2022-09-09T16:24:24.989Z,1.37
2022-09-09T16:26:31.779Z,1.00
2022-09-09T16:28:33.891Z,1.00
2022-09-09T16:30:37.936Z,0.90
2022-09-09T16:32:39.994Z,1.13
2022-09-09T16:34:43.915Z,1.20
2022-09-09T16:36:46.900Z,0.80
2022-09-09T16:38:49.528Z,0.80
2022-09-09T16:40:51.856Z,1.43
2022-09-09T16:42:53.765Z,0.90
2022-09-09T16:44:55.781Z,0.80
2022-09-09T16:47:00.822Z,0.90
2022-09-09T16:49:05.807Z,0.70
2022-09-09T16:51:11.726Z,0.80
2022-09-09T16:53:15.309Z,0.80
2022-09-09T16:55:17.356Z,1.30
2022-09-09T16:57:19.424Z,1.60
2022-09-09T16:59:23.602Z,3.10
2022-09-09T17:01:27.251Z,1.40
2022-09-09T17:03:29.227Z,1.00
2022-09-09T17:05:31.297Z,1.27
2022-09-09T17:07:33.561Z,1.00
2022-09-09T17:09:35.585Z,1.20
2022-09-09T17:11:38.903Z,1.03
2022-09-09T17:13:43.072Z,1.00
2022-09-09T17:15:45.309Z,2.33
2022-09-09T17:17:50.266Z,14.13
2022-09-09T17:19:52.297Z,2.87
2022-09-09T17:22:15.558Z,1.00
2022-09-09T17:24:17.315Z,1.17
2022-09-09T17:26:22.463Z,1.27
2022-09-09T17:28:28.318Z,1.20
2022-09-09T17:30:32.446Z,0.93
2022-09-09T17:32:36.695Z,1.20
2022-09-09T17:34:39.024Z,1.00
2022-09-09T17:36:41.037Z,1.00
2022-09-09T17:38:43.950Z,1.20
2022-09-09T17:40:46.078Z,1.20
2022-09-09T17:42:48.363Z,1.10
2022-09-09T17:44:50.329Z,1.20
2022-09-09T17:46:52.572Z,1.40
2022-09-09T17:49:00.728Z,1.20
2022-09-09T17:51:02.899Z,1.20
2022-09-09T17:53:05.082Z,1.40
2022-09-09T17:55:08.027Z,1.20
2022-09-09T17:57:10.361Z,1.27
2022-09-09T17:59:13.493Z,1.00
2022-09-09T18:01:18.515Z,1.30
2022-09-09T18:03:21.069Z,1.23
2022-09-09T18:05:23.063Z,1.20
2022-09-09T18:07:25.146Z,1.10
2022-09-09T18:09:27.836Z,1.30
2022-09-09T18:11:32.374Z,1.10
2022-09-09T18:13:35.427Z,1.30
2022-09-09T18:15:49.144Z,1.40
2022-09-09T18:17:51.931Z,1.10
2022-09-09T18:19:55.047Z,1.10
2022-09-09T18:22:00.239Z,1.50
2022-09-09T18:24:06.781Z,1.40
2022-09-09T18:26:21.890Z,1.30
2022-09-09T18:28:25.058Z,1.50
2022-09-09T18:30:27.242Z,1.17
2022-09-09T18:32:30.458Z,1.10
2022-09-09T18:34:32.572Z,1.20
2022-09-09T18:36:37.092Z,2.27
2022-09-09T18:38:39.163Z,1.30
2022-09-09T18:40:41.269Z,1.40
2022-09-09T18:42:43.809Z,1.07
2022-09-09T18:44:45.984Z,1.30
2022-09-09T18:46:48.942Z,1.17
2022-09-09T18:48:51.616Z,1.10
2022-09-09T18:50:53.602Z,1.77
2022-09-09T18:52:55.645Z,1.50
2022-09-09T18:54:57.997Z,1.70
2022-09-09T18:57:03.230Z,1.50
2022-09-09T18:59:06.792Z,1.13
2022-09-09T19:01:11.255Z,1.10
2022-09-09T19:03:13.371Z,1.20
2022-09-09T19:05:15.465Z,1.10
2022-09-09T19:07:19.004Z,1.10
2022-09-09T19:09:20.988Z,1.07
2022-09-09T19:11:24.353Z,1.30
2022-09-09T19:13:27.154Z,1.10
2022-09-09T19:15:29.769Z,1.10
2022-09-09T19:17:33.565Z,1.20
2022-09-09T19:19:37.163Z,1.47
2022-09-09T19:21:42.730Z,1.13
2022-09-09T19:23:46.751Z,1.20
2022-09-09T19:25:49.263Z,1.20
2022-09-09T19:27:51.215Z,1.60
2022-09-09T19:29:56.894Z,1.50
2022-09-09T19:34:22.509Z,1.40
2022-09-09T19:36:27.656Z,1.33
2022-09-09T19:38:30.759Z,1.20
2022-09-09T19:40:36.144Z,1.30
2022-09-09T19:42:38.310Z,1.43
2022-09-09T19:44:41.485Z,1.20
2022-09-09T19:46:45.901Z,2.13
2022-09-09T19:48:48.555Z,1.50
2022-09-09T19:50:51.005Z,1.53
2022-09-09T19:52:53.000Z,1.33
2022-09-09T19:54:55.719Z,1.30
2022-09-09T19:56:58.587Z,1.40
2022-09-09T19:59:00.845Z,1.70
2022-09-09T20:01:22.153Z,1.90
2022-09-09T20:03:25.342Z,1.27
2022-09-09T20:05:27.495Z,1.60
2022-09-09T20:07:29.517Z,2.23
2022-09-09T20:09:31.992Z,2.00
2022-09-09T20:11:34.677Z,1.50
2022-09-09T20:13:39.025Z,1.60
2022-09-09T20:15:41.196Z,1.77
2022-09-09T20:17:43.381Z,1.60
2022-09-09T20:19:46.460Z,1.60
2022-09-09T20:21:49.529Z,2.03
2022-09-09T20:23:52.778Z,1.50
2022-09-09T20:25:55.397Z,1.57
2022-09-09T20:27:57.577Z,1.63
2022-09-09T20:29:59.715Z,1.60
2022-09-09T20:32:01.853Z,1.70
2022-09-09T20:34:06.143Z,1.80
2022-09-09T20:36:29.563Z,1.67
2022-09-09T20:38:35.297Z,1.40
2022-09-09T20:40:38.650Z,1.90
2022-09-09T20:42:40.638Z,2.27
2022-09-09T20:44:42.598Z,1.83
2022-09-09T20:46:49.932Z,1.77
2022-09-09T20:48:52.300Z,3.53
2022-09-09T20:50:54.732Z,1.40
2022-09-09T20:52:56.828Z,2.07
2022-09-09T20:54:58.961Z,1.67
2022-09-09T20:57:01.115Z,1.70
2022-09-09T20:59:03.760Z,2.17
2022-09-09T21:01:07.448Z,1.97
2022-09-09T21:03:09.498Z,2.20
2022-09-09T21:05:11.646Z,2.10
2022-09-09T21:07:13.961Z,2.13
2022-09-09T21:09:16.124Z,2.20
2022-09-09T21:11:18.099Z,1.80
2022-09-09T21:13:21.622Z,2.30
2022-09-09T21:15:24.558Z,2.57
2022-09-09T21:17:27.065Z,2.10
2022-09-09T21:19:29.546Z,2.33
2022-09-09T21:21:31.969Z,1.70
2022-09-09T21:23:34.255Z,2.00
2022-09-09T21:25:36.775Z,2.67
2022-09-09T21:27:38.718Z,1.90
2022-09-09T21:29:40.733Z,2.33
2022-09-09T21:31:43.576Z,1.90
2022-09-09T21:33:46.275Z,1.90
2022-09-09T21:35:48.860Z,1.63
2022-09-09T21:37:51.042Z,2.27
2022-09-09T21:39:53.075Z,2.20
2022-09-09T21:41:55.346Z,2.10
2022-09-09T21:43:57.638Z,2.00
2022-09-09T21:45:59.903Z,2.00
2022-09-09T21:48:02.384Z,2.10
2022-09-09T21:50:04.708Z,2.00
2022-09-09T21:52:06.657Z,1.90
2022-09-09T21:54:08.663Z,1.90
2022-09-09T21:56:13.254Z,2.03
2022-09-09T21:58:16.350Z,1.63
2022-09-09T22:00:18.349Z,2.00
2022-09-09T22:02:22.299Z,1.93
2022-09-09T22:04:24.566Z,1.90
2022-09-09T22:06:26.944Z,1.97
2022-09-09T22:08:29.668Z,2.33
2022-09-09T22:10:31.783Z,1.80
2022-09-09T22:12:35.099Z,2.03
2022-09-09T22:14:37.427Z,2.70
2022-09-09T22:16:40.207Z,1.70
2022-09-09T22:18:42.622Z,2.07
2022-09-09T22:20:45.436Z,1.87
2022-09-09T22:22:47.438Z,1.80
2022-09-09T22:24:49.419Z,1.70
2022-09-09T22:26:55.562Z,2.17
2022-09-09T22:28:58.011Z,1.60
2022-09-09T22:31:00.461Z,1.60
2022-09-09T22:33:02.871Z,1.80
2022-09-09T22:35:05.248Z,2.10
2022-09-09T22:37:07.355Z,1.80
2022-09-09T22:39:09.518Z,1.80
2022-09-09T22:41:11.694Z,1.77
2022-09-09T22:43:19.387Z,2.07
2022-09-09T22:45:21.826Z,2.00
2022-09-09T22:47:24.586Z,2.03
2022-09-09T22:49:27.329Z,1.80
2022-09-09T22:51:30.679Z,2.00
2022-09-09T22:53:34.262Z,2.13
2022-09-09T22:55:37.035Z,2.20
2022-09-09T22:57:39.064Z,2.10
2022-09-09T22:59:41.041Z,1.80
2022-09-09T23:01:43.743Z,2.20
2022-09-09T23:03:46.405Z,1.90
2022-09-09T23:05:56.549Z,2.70
2022-09-09T23:07:58.765Z,2.27
2022-09-09T23:10:00.783Z,2.20
2022-09-09T23:12:04.715Z,1.80
2022-09-09T23:14:09.810Z,2.20
2022-09-09T23:16:14.685Z,1.73
2022-09-09T23:18:16.682Z,2.10
2022-09-09T23:20:19.579Z,2.27
2022-09-09T23:22:21.965Z,2.47
2022-09-09T23:24:24.303Z,2.47
2022-09-09T23:26:29.764Z,2.50
2022-09-09T23:28:32.798Z,2.80
2022-09-09T23:30:34.866Z,1.83
2022-09-09T23:32:37.509Z,2.40
2022-09-09T23:34:40.586Z,2.43
2022-09-09T23:36:42.726Z,2.20
2022-09-09T23:38:45.018Z,2.37
2022-09-09T23:40:47.238Z,2.47
2022-09-09T23:42:49.195Z,2.30
2022-09-09T23:44:52.119Z,2.90
2022-09-09T23:46:54.163Z,2.80
2022-09-09T23:48:58.548Z,2.87
2022-09-09T23:51:00.772Z,2.83
2022-09-09T23:53:03.405Z,2.70
2022-09-09T23:55:08.014Z,2.27
2022-09-09T23:57:11.875Z,2.47
2022-09-09T23:59:13.905Z,2.47
